Terminal Aerodrome Forecast
Issued by NWS Austin/San Antonio, TX

Home | Current Version | Previous Version | Text Only | Print | Product List | Glossary On
Versions: 1 2 3 4 5 6 7 8 9 10 11 12 13 14 15 16 17 18 19 20 21 22 23 24 25 26 27 28
696
FTUS44 KEWX 292333
TAFSAT
TAF
KSAT 292333Z 3000/0106 23005KT P6SM VCSH SCT030
     FM300500 14005KT 6SM BR OVC015
     FM300700 VRB03KT 5SM BR VCTS BKN007CB
     FM301100 32004KT 4SM BR OVC015
     FM301300 36005KT P6SM BKN250
     FM302100 08005KT P6SM BKN250=

USA.gov is the U.S. government's official web portal to all federal, state and local government web resources and services.